sensor_id;sensor_type;location;lat;lon;timestamp;temperature;humidity
2112;DHT22;1062;52.538;13.400;2023-02-08T00:00:14;-1.60;99.90
2112;DHT22;1062;52.538;13.400;2023-02-08T00:02:43;-1.60;99.90
2112;DHT22;1062;52.538;13.400;2023-02-08T00:05:08;-1.60;99.90
2112;DHT22;1062;52.538;13.400;2023-02-08T00:07:34;-1.60;99.90
2112;DHT22;1062;52.538;13.400;2023-02-08T00:09:59;-1.60;99.90
2112;DHT22;1062;52.538;13.400;2023-02-08T00:12:25;-1.70;99.90
2112;DHT22;1062;52.538;13.400;2023-02-08T00:14:52;-1.70;99.90
2112;DHT22;1062;52.538;13.400;2023-02-08T00:17:18;-1.70;99.90
2112;DHT22;1062;52.538;13.400;2023-02-08T00:19:43;-1.80;99.90
2112;DHT22;1062;52.538;13.400;2023-02-08T00:22:09;-1.80;99.90
2112;DHT22;1062;52.538;13.400;2023-02-08T00:24:34;-1.80;99.90
2112;DHT22;1062;52.538;13.400;2023-02-08T00:27:00;-1.80;99.90
2112;DHT22;1062;52.538;13.400;2023-02-08T00:29:25;-1.90;99.90
2112;DHT22;1062;52.538;13.400;2023-02-08T00:31:54;-1.90;99.90
2112;DHT22;1062;52.538;13.400;2023-02-08T00:34:20;-1.90;99.90
2112;DHT22;1062;52.538;13.400;2023-02-08T00:36:45;-1.90;99.90
2112;DHT22;1062;52.538;13.400;2023-02-08T00:39:11;-1.90;99.90
2112;DHT22;1062;52.538;13.400;2023-02-08T00:41:36;-1.90;99.90
2112;DHT22;1062;52.538;13.400;2023-02-08T00:44:02;-1.90;99.90
2112;DHT22;1062;52.538;13.400;2023-02-08T00:46:27;-2.00;99.90
2112;DHT22;1062;52.538;13.400;2023-02-08T00:48:53;-2.00;99.90
2112;DHT22;1062;52.538;13.400;2023-02-08T00:51:19;-1.90;99.90
2112;DHT22;1062;52.538;13.400;2023-02-08T00:53:45;-1.90;99.90
2112;DHT22;1062;52.538;13.400;2023-02-08T00:56:12;-1.90;99.90
2112;DHT22;1062;52.538;13.400;2023-02-08T00:58:38;-1.90;99.90
2112;DHT22;1062;52.538;13.400;2023-02-08T01:01:05;-1.80;99.90
2112;DHT22;1062;52.538;13.400;2023-02-08T01:03:33;-1.80;99.90
2112;DHT22;1062;52.538;13.400;2023-02-08T01:06:03;-1.80;99.90
2112;DHT22;1062;52.538;13.400;2023-02-08T01:08:30;-1.80;99.90
2112;DHT22;1062;52.538;13.400;2023-02-08T01:11:13;-1.80;99.90
2112;DHT22;1062;52.538;13.400;2023-02-08T01:13:40;-1.80;99.90
2112;DHT22;1062;52.538;13.400;2023-02-08T01:16:11;-1.90;99.90
2112;DHT22;1062;52.538;13.400;2023-02-08T01:18:38;-1.80;99.90
2112;DHT22;1062;52.538;13.400;2023-02-08T01:21:09;-1.80;99.90
2112;DHT22;1062;52.538;13.400;2023-02-08T01:23:36;-1.90;99.90
2112;DHT22;1062;52.538;13.400;2023-02-08T01:26:02;-1.80;99.90
2112;DHT22;1062;52.538;13.400;2023-02-08T01:28:28;-1.90;99.90
2112;DHT22;1062;52.538;13.400;2023-02-08T01:30:53;-1.80;99.90
2112;DHT22;1062;52.538;13.400;2023-02-08T01:33:19;-1.80;99.90
2112;DHT22;1062;52.538;13.400;2023-02-08T01:35:45;-1.80;99.90
2112;DHT22;1062;52.538;13.400;2023-02-08T01:38:13;-1.80;99.90
2112;DHT22;1062;52.538;13.400;2023-02-08T01:40:39;-1.80;99.90
2112;DHT22;1062;52.538;13.400;2023-02-08T01:43:18;-1.80;99.90
2112;DHT22;1062;52.538;13.400;2023-02-08T01:45:44;-1.80;99.90
2112;DHT22;1062;52.538;13.400;2023-02-08T01:48:14;-1.80;99.90
2112;DHT22;1062;52.538;13.400;2023-02-08T01:51:00;-1.80;99.90
2112;DHT22;1062;52.538;13.400;2023-02-08T01:53:28;-1.80;99.90
2112;DHT22;1062;52.538;13.400;2023-02-08T01:55:58;-1.80;99.90
2112;DHT22;1062;52.538;13.400;2023-02-08T01:58:26;-1.90;99.90
2112;DHT22;1062;52.538;13.400;2023-02-08T02:00:52;-1.90;99.90
2112;DHT22;1062;52.538;13.400;2023-02-08T02:03:19;-1.90;99.90
2112;DHT22;1062;52.538;13.400;2023-02-08T02:05:51;-1.90;99.90
2112;DHT22;1062;52.538;13.400;2023-02-08T02:08:22;-1.90;99.90
2112;DHT22;1062;52.538;13.400;2023-02-08T02:11:02;-1.90;99.90
2112;DHT22;1062;52.538;13.400;2023-02-08T02:13:34;-1.90;99.90
2112;DHT22;1062;52.538;13.400;2023-02-08T02:16:04;-1.90;99.90
2112;DHT22;1062;52.538;13.400;2023-02-08T02:18:33;-2.00;99.90
2112;DHT22;1062;52.538;13.400;2023-02-08T02:21:19;-2.00;99.90
2112;DHT22;1062;52.538;13.400;2023-02-08T02:33:04;-2.10;99.90
2112;DHT22;1062;52.538;13.400;2023-02-08T02:44:27;-2.20;99.90
2112;DHT22;1062;52.538;13.400;2023-02-08T02:47:17;-2.20;99.90
2112;DHT22;1062;52.538;13.400;2023-02-08T02:49:54;-2.30;99.90
2112;DHT22;1062;52.538;13.400;2023-02-08T02:52:30;-2.30;99.90
2112;DHT22;1062;52.538;13.400;2023-02-08T02:55:13;-2.30;99.90
2112;DHT22;1062;52.538;13.400;2023-02-08T02:57:43;-2.30;99.90
2112;DHT22;1062;52.538;13.400;2023-02-08T03:00:22;-2.30;99.90
2112;DHT22;1062;52.538;13.400;2023-02-08T03:02:59;-2.30;99.90
2112;DHT22;1062;52.538;13.400;2023-02-08T03:05:28;-2.30;99.90
2112;DHT22;1062;52.538;13.400;2023-02-08T03:08:45;-2.30;99.90
2112;DHT22;1062;52.538;13.400;2023-02-08T03:11:25;-2.40;99.90
2112;DHT22;1062;52.538;13.400;2023-02-08T03:20:20;-2.40;99.90
2112;DHT22;1062;52.538;13.400;2023-02-08T03:31:35;-2.60;99.90
2112;DHT22;1062;52.538;13.400;2023-02-08T03:34:15;-2.60;99.90
2112;DHT22;1062;52.538;13.400;2023-02-08T03:37:02;-2.70;99.90
2112;DHT22;1062;52.538;13.400;2023-02-08T03:39:31;-2.70;99.90
2112;DHT22;1062;52.538;13.400;2023-02-08T03:42:05;-2.70;99.90
2112;DHT22;1062;52.538;13.400;2023-02-08T03:44:41;-2.70;99.90
2112;DHT22;1062;52.538;13.400;2023-02-08T03:47:18;-2.70;99.90
2112;DHT22;1062;52.538;13.400;2023-02-08T03:49:50;-2.70;99.90
2112;DHT22;1062;52.538;13.400;2023-02-08T03:52:20;-2.70;99.90
2112;DHT22;1062;52.538;13.400;2023-02-08T03:55:15;-2.70;99.90
2112;DHT22;1062;52.538;13.400;2023-02-08T03:57:45;-2.70;99.90
2112;DHT22;1062;52.538;13.400;2023-02-08T04:00:14;-2.70;99.90
2112;DHT22;1062;52.538;13.400;2023-02-08T04:02:58;-2.70;99.90
2112;DHT22;1062;52.538;13.400;2023-02-08T04:05:25;-2.80;99.90
2112;DHT22;1062;52.538;13.400;2023-02-08T04:07:51;-2.80;99.90
2112;DHT22;1062;52.538;13.400;2023-02-08T04:10:17;-2.80;99.90
2112;DHT22;1062;52.538;13.400;2023-02-08T04:12:47;-2.80;99.90
2112;DHT22;1062;52.538;13.400;2023-02-08T04:15:16;-2.80;99.90
2112;DHT22;1062;52.538;13.400;2023-02-08T04:17:41;-2.80;99.90
2112;DHT22;1062;52.538;13.400;2023-02-08T04:20:07;-2.80;99.90
2112;DHT22;1062;52.538;13.400;2023-02-08T04:22:33;-2.80;99.90
2112;DHT22;1062;52.538;13.400;2023-02-08T04:24:59;-2.90;99.90
2112;DHT22;1062;52.538;13.400;2023-02-08T04:27:25;-2.90;99.90
2112;DHT22;1062;52.538;13.400;2023-02-08T04:29:50;-2.90;99.90
2112;DHT22;1062;52.538;13.400;2023-02-08T04:32:16;-2.90;99.90
2112;DHT22;1062;52.538;13.400;2023-02-08T04:34:42;-2.90;99.90
2112;DHT22;1062;52.538;13.400;2023-02-08T04:37:08;-2.90;99.90
2112;DHT22;1062;52.538;13.400;2023-02-08T04:39:33;-2.90;99.90
2112;DHT22;1062;52.538;13.400;2023-02-08T04:41:59;-2.90;99.90
2112;DHT22;1062;52.538;13.400;2023-02-08T04:44:25;-2.90;99.90
2112;DHT22;1062;52.538;13.400;2023-02-08T04:46:52;-2.90;99.90
2112;DHT22;1062;52.538;13.400;2023-02-08T04:49:17;-2.90;99.90
2112;DHT22;1062;52.538;13.400;2023-02-08T04:51:43;-2.90;99.90
2112;DHT22;1062;52.538;13.400;2023-02-08T04:54:09;-2.90;99.90
2112;DHT22;1062;52.538;13.400;2023-02-08T04:56:35;-3.00;99.90
2112;DHT22;1062;52.538;13.400;2023-02-08T04:59:01;-2.90;99.90
2112;DHT22;1062;52.538;13.400;2023-02-08T05:01:26;-2.90;99.90
2112;DHT22;1062;52.538;13.400;2023-02-08T05:03:52;-2.90;99.90
2112;DHT22;1062;52.538;13.400;2023-02-08T05:06:17;-3.00;99.90
2112;DHT22;1062;52.538;13.400;2023-02-08T05:08:43;-3.00;99.90
2112;DHT22;1062;52.538;13.400;2023-02-08T05:11:08;-3.00;99.90
2112;DHT22;1062;52.538;13.400;2023-02-08T05:13:34;-3.00;99.90
2112;DHT22;1062;52.538;13.400;2023-02-08T05:16:00;-3.00;99.90
2112;DHT22;1062;52.538;13.400;2023-02-08T05:18:25;-3.00;99.90
2112;DHT22;1062;52.538;13.400;2023-02-08T05:21:00;-3.00;99.90
2112;DHT22;1062;52.538;13.400;2023-02-08T05:23:26;-3.00;99.90
2112;DHT22;1062;52.538;13.400;2023-02-08T05:25:52;-3.00;99.90
2112;DHT22;1062;52.538;13.400;2023-02-08T05:28:18;-3.00;99.90
2112;DHT22;1062;52.538;13.400;2023-02-08T05:30:45;-3.00;99.90
2112;DHT22;1062;52.538;13.400;2023-02-08T05:33:11;-3.00;99.90
2112;DHT22;1062;52.538;13.400;2023-02-08T05:35:37;-3.10;99.90
2112;DHT22;1062;52.538;13.400;2023-02-08T05:38:02;-3.10;99.90
2112;DHT22;1062;52.538;13.400;2023-02-08T05:40:28;-3.10;99.90
2112;DHT22;1062;52.538;13.400;2023-02-08T05:42:53;-3.10;99.90
2112;DHT22;1062;52.538;13.400;2023-02-08T05:45:19;-3.10;99.90
2112;DHT22;1062;52.538;13.400;2023-02-08T05:47:45;-3.10;99.90
2112;DHT22;1062;52.538;13.400;2023-02-08T05:50:12;-3.10;99.90
2112;DHT22;1062;52.538;13.400;2023-02-08T05:52:38;-3.10;99.90
2112;DHT22;1062;52.538;13.400;2023-02-08T05:55:04;-3.10;99.90
2112;DHT22;1062;52.538;13.400;2023-02-08T05:57:30;-3.10;99.90
2112;DHT22;1062;52.538;13.400;2023-02-08T05:59:56;-3.10;99.90
2112;DHT22;1062;52.538;13.400;2023-02-08T06:02:22;-3.10;99.90
2112;DHT22;1062;52.538;13.400;2023-02-08T06:04:47;-3.10;99.90
2112;DHT22;1062;52.538;13.400;2023-02-08T06:07:13;-3.10;99.90
2112;DHT22;1062;52.538;13.400;2023-02-08T06:09:39;-3.10;99.90
2112;DHT22;1062;52.538;13.400;2023-02-08T06:12:05;-3.10;99.90
2112;DHT22;1062;52.538;13.400;2023-02-08T06:14:31;-3.10;99.90
2112;DHT22;1062;52.538;13.400;2023-02-08T06:16:57;-3.10;99.90
2112;DHT22;1062;52.538;13.400;2023-02-08T06:19:23;-3.10;99.90
2112;DHT22;1062;52.538;13.400;2023-02-08T06:21:49;-3.10;99.90
2112;DHT22;1062;52.538;13.400;2023-02-08T06:24:14;-3.10;99.90
2112;DHT22;1062;52.538;13.400;2023-02-08T06:26:41;-3.10;99.90
2112;DHT22;1062;52.538;13.400;2023-02-08T06:29:07;-3.10;99.90
2112;DHT22;1062;52.538;13.400;2023-02-08T06:31:34;-3.10;99.90
2112;DHT22;1062;52.538;13.400;2023-02-08T06:34:00;-3.10;99.90
2112;DHT22;1062;52.538;13.400;2023-02-08T06:36:26;-3.10;99.90
2112;DHT22;1062;52.538;13.400;2023-02-08T06:38:51;-3.10;99.90
2112;DHT22;1062;52.538;13.400;2023-02-08T06:41:17;-3.10;99.90
2112;DHT22;1062;52.538;13.400;2023-02-08T06:43:43;-3.10;99.90
2112;DHT22;1062;52.538;13.400;2023-02-08T06:46:09;-3.10;99.90
2112;DHT22;1062;52.538;13.400;2023-02-08T06:48:34;-3.10;99.90
2112;DHT22;1062;52.538;13.400;2023-02-08T06:51:00;-3.10;99.90
2112;DHT22;1062;52.538;13.400;2023-02-08T06:53:26;-3.10;99.90
2112;DHT22;1062;52.538;13.400;2023-02-08T06:55:52;-3.00;99.90
2112;DHT22;1062;52.538;13.400;2023-02-08T06:58:17;-3.00;99.90
2112;DHT22;1062;52.538;13.400;2023-02-08T07:00:43;-3.00;99.90
2112;DHT22;1062;52.538;13.400;2023-02-08T07:03:13;-3.00;99.90
2112;DHT22;1062;52.538;13.400;2023-02-08T07:05:39;-2.90;99.90
2112;DHT22;1062;52.538;13.400;2023-02-08T07:08:06;-2.90;99.90
2112;DHT22;1062;52.538;13.400;2023-02-08T07:10:32;-2.10;99.90
2112;DHT22;1062;52.538;13.400;2023-02-08T07:12:58;-2.20;99.90
2112;DHT22;1062;52.538;13.400;2023-02-08T07:15:25;-2.30;99.90
2112;DHT22;1062;52.538;13.400;2023-02-08T07:17:51;-2.40;99.90
2112;DHT22;1062;52.538;13.400;2023-02-08T07:20:17;-2.50;99.90
2112;DHT22;1062;52.538;13.400;2023-02-08T07:22:43;-2.60;99.90
2112;DHT22;1062;52.538;13.400;2023-02-08T07:25:09;-2.50;99.90
2112;DHT22;1062;52.538;13.400;2023-02-08T07:27:34;-2.50;99.90
2112;DHT22;1062;52.538;13.400;2023-02-08T07:30:00;-2.50;99.90
2112;DHT22;1062;52.538;13.400;2023-02-08T07:32:26;-2.50;99.90
2112;DHT22;1062;52.538;13.400;2023-02-08T07:34:51;-2.50;99.90
2112;DHT22;1062;52.538;13.400;2023-02-08T07:37:18;-2.40;99.90
2112;DHT22;1062;52.538;13.400;2023-02-08T07:39:44;-2.30;99.90
2112;DHT22;1062;52.538;13.400;2023-02-08T07:42:10;-2.30;99.90
2112;DHT22;1062;52.538;13.400;2023-02-08T07:44:37;-2.00;99.90
2112;DHT22;1062;52.538;13.400;2023-02-08T07:47:04;-1.80;99.90
2112;DHT22;1062;52.538;13.400;2023-02-08T07:49:30;-1.80;99.90
2112;DHT22;1062;52.538;13.400;2023-02-08T07:51:55;-1.60;99.90
2112;DHT22;1062;52.538;13.400;2023-02-08T07:54:21;-1.50;99.90
2112;DHT22;1062;52.538;13.400;2023-02-08T07:56:47;-1.50;99.90
2112;DHT22;1062;52.538;13.400;2023-02-08T07:59:12;-1.30;99.90
2112;DHT22;1062;52.538;13.400;2023-02-08T08:01:39;-1.10;99.90
2112;DHT22;1062;52.538;13.400;2023-02-08T08:04:04;-1.10;99.90
2112;DHT22;1062;52.538;13.400;2023-02-08T08:06:30;-1.10;99.90
2112;DHT22;1062;52.538;13.400;2023-02-08T08:08:56;-0.90;99.90
2112;DHT22;1062;52.538;13.400;2023-02-08T08:11:22;-0.80;99.90
2112;DHT22;1062;52.538;13.400;2023-02-08T08:13:48;-0.90;99.90
2112;DHT22;1062;52.538;13.400;2023-02-08T08:16:14;-0.60;99.90
2112;DHT22;1062;52.538;13.400;2023-02-08T08:18:40;-0.50;99.90
2112;DHT22;1062;52.538;13.400;2023-02-08T08:21:07;0.00;99.90
2112;DHT22;1062;52.538;13.400;2023-02-08T08:23:33;0.90;99.90
2112;DHT22;1062;52.538;13.400;2023-02-08T08:26:08;1.80;99.90
2112;DHT22;1062;52.538;13.400;2023-02-08T08:28:38;2.30;99.90
2112;DHT22;1062;52.538;13.400;2023-02-08T08:31:09;2.60;99.90
2112;DHT22;1062;52.538;13.400;2023-02-08T08:33:34;3.50;99.90
2112;DHT22;1062;52.538;13.400;2023-02-08T08:36:00;3.50;99.90
2112;DHT22;1062;52.538;13.400;2023-02-08T08:38:25;3.50;99.90
2112;DHT22;1062;52.538;13.400;2023-02-08T08:40:51;3.10;99.90
2112;DHT22;1062;52.538;13.400;2023-02-08T08:43:17;3.00;99.90
2112;DHT22;1062;52.538;13.400;2023-02-08T08:45:43;3.50;99.90
2112;DHT22;1062;52.538;13.400;2023-02-08T08:48:09;3.40;99.90
2112;DHT22;1062;52.538;13.400;2023-02-08T08:50:35;3.20;99.90
2112;DHT22;1062;52.538;13.400;2023-02-08T08:53:01;2.60;99.90
2112;DHT22;1062;52.538;13.400;2023-02-08T08:55:26;1.50;99.90
2112;DHT22;1062;52.538;13.400;2023-02-08T08:57:52;2.00;99.90
2112;DHT22;1062;52.538;13.400;2023-02-08T09:00:18;2.40;99.90
2112;DHT22;1062;52.538;13.400;2023-02-08T09:02:44;3.10;99.90
2112;DHT22;1062;52.538;13.400;2023-02-08T09:05:09;3.90;99.90
2112;DHT22;1062;52.538;13.400;2023-02-08T09:07:35;4.10;99.90
2112;DHT22;1062;52.538;13.400;2023-02-08T09:10:01;3.70;99.90
2112;DHT22;1062;52.538;13.400;2023-02-08T09:12:26;3.80;99.90
2112;DHT22;1062;52.538;13.400;2023-02-08T09:14:52;4.20;99.90
2112;DHT22;1062;52.538;13.400;2023-02-08T09:17:18;4.40;99.90
2112;DHT22;1062;52.538;13.400;2023-02-08T09:19:44;4.10;99.90
2112;DHT22;1062;52.538;13.400;2023-02-08T09:22:12;4.60;99.90
2112;DHT22;1062;52.538;13.400;2023-02-08T09:24:38;4.60;99.90
2112;DHT22;1062;52.538;13.400;2023-02-08T09:27:04;5.10;99.90
2112;DHT22;1062;52.538;13.400;2023-02-08T09:29:30;3.80;99.90
2112;DHT22;1062;52.538;13.400;2023-02-08T09:31:58;3.00;99.90
2112;DHT22;1062;52.538;13.400;2023-02-08T09:34:23;3.00;99.90
2112;DHT22;1062;52.538;13.400;2023-02-08T09:36:49;2.60;99.90
2112;DHT22;1062;52.538;13.400;2023-02-08T09:39:21;2.80;99.90
2112;DHT22;1062;52.538;13.400;2023-02-08T09:42:15;2.80;99.90
2112;DHT22;1062;52.538;13.400;2023-02-08T09:45:23;2.80;99.90
2112;DHT22;1062;52.538;13.400;2023-02-08T09:50:43;3.00;99.90
2112;DHT22;1062;52.538;13.400;2023-02-08T09:53:16;2.90;99.90
2112;DHT22;1062;52.538;13.400;2023-02-08T09:55:53;2.90;99.90
2112;DHT22;1062;52.538;13.400;2023-02-08T10:00:48;2.30;99.90
2112;DHT22;1062;52.538;13.400;2023-02-08T10:03:37;1.70;99.90
2112;DHT22;1062;52.538;13.400;2023-02-08T10:06:06;1.90;99.90
2112;DHT22;1062;52.538;13.400;2023-02-08T10:08:33;1.80;99.90
2112;DHT22;1062;52.538;13.400;2023-02-08T10:11:08;1.30;99.90
2112;DHT22;1062;52.538;13.400;2023-02-08T10:16:35;1.10;99.90
2112;DHT22;1062;52.538;13.400;2023-02-08T10:19:37;1.10;99.90
2112;DHT22;1062;52.538;13.400;2023-02-08T10:22:36;0.90;99.90
2112;DHT22;1062;52.538;13.400;2023-02-08T10:30:35;0.90;99.90
2112;DHT22;1062;52.538;13.400;2023-02-08T10:35:47;0.90;99.90
2112;DHT22;1062;52.538;13.400;2023-02-08T10:40:51;0.80;99.90
2112;DHT22;1062;52.538;13.400;2023-02-08T10:43:31;0.80;99.90
2112;DHT22;1062;52.538;13.400;2023-02-08T10:51:32;0.90;99.90
2112;DHT22;1062;52.538;13.400;2023-02-08T10:53:58;0.90;99.90
2112;DHT22;1062;52.538;13.400;2023-02-08T10:56:35;0.90;99.90
2112;DHT22;1062;52.538;13.400;2023-02-08T10:59:27;0.90;99.90
2112;DHT22;1062;52.538;13.400;2023-02-08T11:01:52;1.00;99.90
2112;DHT22;1062;52.538;13.400;2023-02-08T11:04:18;1.00;99.90
2112;DHT22;1062;52.538;13.400;2023-02-08T11:06:45;1.00;99.90
2112;DHT22;1062;52.538;13.400;2023-02-08T11:09:26;1.00;99.90
2112;DHT22;1062;52.538;13.400;2023-02-08T11:11:54;1.10;99.90
2112;DHT22;1062;52.538;13.400;2023-02-08T11:14:29;1.10;99.90
2112;DHT22;1062;52.538;13.400;2023-02-08T11:16:58;1.20;99.90
2112;DHT22;1062;52.538;13.400;2023-02-08T11:19:33;1.30;99.90
2112;DHT22;1062;52.538;13.400;2023-02-08T11:22:00;1.30;99.90
2112;DHT22;1062;52.538;13.400;2023-02-08T11:24:37;1.30;99.90
2112;DHT22;1062;52.538;13.400;2023-02-08T11:30:22;1.50;99.90
2112;DHT22;1062;52.538;13.400;2023-02-08T11:33:15;1.50;99.90
2112;DHT22;1062;52.538;13.400;2023-02-08T11:36:16;1.60;99.90
2112;DHT22;1062;52.538;13.400;2023-02-08T11:38:37;1.50;99.90
2112;DHT22;1062;52.538;13.400;2023-02-08T11:41:14;1.50;99.90
2112;DHT22;1062;52.538;13.400;2023-02-08T11:43:40;1.60;99.90
2112;DHT22;1062;52.538;13.400;2023-02-08T11:46:07;1.70;99.90
2112;DHT22;1062;52.538;13.400;2023-02-08T11:48:51;1.70;99.90
2112;DHT22;1062;52.538;13.400;2023-02-08T11:51:28;1.80;99.90
2112;DHT22;1062;52.538;13.400;2023-02-08T11:53:55;1.80;99.90
2112;DHT22;1062;52.538;13.400;2023-02-08T11:56:27;1.80;99.90
2112;DHT22;1062;52.538;13.400;2023-02-08T11:59:18;1.90;99.90
2112;DHT22;1062;52.538;13.400;2023-02-08T12:01:44;1.90;99.90
2112;DHT22;1062;52.538;13.400;2023-02-08T12:04:14;1.90;99.90
2112;DHT22;1062;52.538;13.400;2023-02-08T12:20:39;2.00;99.90
2112;DHT22;1062;52.538;13.400;2023-02-08T12:31:07;2.30;99.90
2112;DHT22;1062;52.538;13.400;2023-02-08T12:34:06;2.20;99.90
2112;DHT22;1062;52.538;13.400;2023-02-08T12:39:58;2.20;99.90
2112;DHT22;1062;52.538;13.400;2023-02-08T12:45:53;2.20;99.90
2112;DHT22;1062;52.538;13.400;2023-02-08T12:54:13;2.50;99.90
2112;DHT22;1062;52.538;13.400;2023-02-08T12:56:45;2.40;99.90
2112;DHT22;1062;52.538;13.400;2023-02-08T12:59:25;2.40;99.90
2112;DHT22;1062;52.538;13.400;2023-02-08T13:01:58;2.50;99.90
2112;DHT22;1062;52.538;13.400;2023-02-08T13:04:36;2.40;99.90
2112;DHT22;1062;52.538;13.400;2023-02-08T13:07:12;2.50;99.90
2112;DHT22;1062;52.538;13.400;2023-02-08T13:12:19;2.40;99.90
2112;DHT22;1062;52.538;13.400;2023-02-08T13:14:56;2.40;99.90
2112;DHT22;1062;52.538;13.400;2023-02-08T13:17:27;2.30;99.90
2112;DHT22;1062;52.538;13.400;2023-02-08T13:20:01;2.20;99.90
2112;DHT22;1062;52.538;13.400;2023-02-08T13:22:34;2.20;99.90
2112;DHT22;1062;52.538;13.400;2023-02-08T13:25:02;2.30;99.90
2112;DHT22;1062;52.538;13.400;2023-02-08T13:27:29;2.20;99.90
2112;DHT22;1062;52.538;13.400;2023-02-08T13:29:54;2.30;99.90
2112;DHT22;1062;52.538;13.400;2023-02-08T13:32:29;2.30;99.90
2112;DHT22;1062;52.538;13.400;2023-02-08T13:35:00;2.40;99.90
2112;DHT22;1062;52.538;13.400;2023-02-08T13:37:29;2.50;99.90
2112;DHT22;1062;52.538;13.400;2023-02-08T13:40:06;2.40;99.90
2112;DHT22;1062;52.538;13.400;2023-02-08T13:45:29;2.50;99.90
2112;DHT22;1062;52.538;13.400;2023-02-08T13:48:18;2.50;99.90
2112;DHT22;1062;52.538;13.400;2023-02-08T13:53:18;2.60;99.90
2112;DHT22;1062;52.538;13.400;2023-02-08T13:56:10;2.60;99.90
2112;DHT22;1062;52.538;13.400;2023-02-08T14:01:19;2.60;99.90
2112;DHT22;1062;52.538;13.400;2023-02-08T14:06:54;2.50;99.90
2112;DHT22;1062;52.538;13.400;2023-02-08T14:12:26;2.50;99.90
2112;DHT22;1062;52.538;13.400;2023-02-08T14:17:44;2.50;99.90
2112;DHT22;1062;52.538;13.400;2023-02-08T14:20:28;2.50;99.90
2112;DHT22;1062;52.538;13.400;2023-02-08T14:22:59;2.50;99.90
2112;DHT22;1062;52.538;13.400;2023-02-08T14:25:28;2.40;99.90
2112;DHT22;1062;52.538;13.400;2023-02-08T14:28:02;2.30;99.90
2112;DHT22;1062;52.538;13.400;2023-02-08T14:30:29;2.30;99.90
2112;DHT22;1062;52.538;13.400;2023-02-08T14:35:34;2.30;99.90
2112;DHT22;1062;52.538;13.400;2023-02-08T14:40:57;2.20;99.90
2112;DHT22;1062;52.538;13.400;2023-02-08T14:43:33;2.20;99.90
2112;DHT22;1062;52.538;13.400;2023-02-08T14:49:07;2.20;99.90
2112;DHT22;1062;52.538;13.400;2023-02-08T14:51:36;2.20;99.90
2112;DHT22;1062;52.538;13.400;2023-02-08T14:54:20;2.20;99.90
2112;DHT22;1062;52.538;13.400;2023-02-08T14:56:58;2.20;99.90
2112;DHT22;1062;52.538;13.400;2023-02-08T14:59:29;2.10;99.90
2112;DHT22;1062;52.538;13.400;2023-02-08T15:01:58;2.10;99.90
2112;DHT22;1062;52.538;13.400;2023-02-08T15:04:25;2.10;99.90
2112;DHT22;1062;52.538;13.400;2023-02-08T15:09:46;2.00;99.90
2112;DHT22;1062;52.538;13.400;2023-02-08T15:12:28;1.90;99.90
2112;DHT22;1062;52.538;13.400;2023-02-08T15:14:57;1.90;99.90
2112;DHT22;1062;52.538;13.400;2023-02-08T15:17:48;1.90;99.90
2112;DHT22;1062;52.538;13.400;2023-02-08T15:20:34;1.80;99.90
2112;DHT22;1062;52.538;13.400;2023-02-08T15:23:05;1.80;99.90
2112;DHT22;1062;52.538;13.400;2023-02-08T15:25:36;1.70;99.90
2112;DHT22;1062;52.538;13.400;2023-02-08T15:28:25;1.70;99.90
2112;DHT22;1062;52.538;13.400;2023-02-08T15:31:02;1.60;99.90
2112;DHT22;1062;52.538;13.400;2023-02-08T15:33:30;1.60;99.90
2112;DHT22;1062;52.538;13.400;2023-02-08T15:36:00;1.50;99.90
2112;DHT22;1062;52.538;13.400;2023-02-08T15:38:27;1.50;99.90
2112;DHT22;1062;52.538;13.400;2023-02-08T15:41:08;1.50;99.90
2112;DHT22;1062;52.538;13.400;2023-02-08T15:43:35;1.40;99.90
2112;DHT22;1062;52.538;13.400;2023-02-08T15:46:03;1.40;99.90
2112;DHT22;1062;52.538;13.400;2023-02-08T15:48:30;1.30;99.90
2112;DHT22;1062;52.538;13.400;2023-02-08T15:50:58;1.30;99.90
2112;DHT22;1062;52.538;13.400;2023-02-08T15:53:25;1.20;99.90
2112;DHT22;1062;52.538;13.400;2023-02-08T15:55:55;1.20;99.90
2112;DHT22;1062;52.538;13.400;2023-02-08T15:58:35;1.20;99.90
2112;DHT22;1062;52.538;13.400;2023-02-08T16:01:04;1.10;99.90
2112;DHT22;1062;52.538;13.400;2023-02-08T16:03:31;1.10;99.90
2112;DHT22;1062;52.538;13.400;2023-02-08T16:06:02;1.00;99.90
2112;DHT22;1062;52.538;13.400;2023-02-08T16:08:34;1.00;99.90
2112;DHT22;1062;52.538;13.400;2023-02-08T16:11:29;0.90;99.90
2112;DHT22;1062;52.538;13.400;2023-02-08T16:13:56;0.90;99.90
2112;DHT22;1062;52.538;13.400;2023-02-08T16:19:03;0.80;99.90
2112;DHT22;1062;52.538;13.400;2023-02-08T16:21:36;0.70;99.90
2112;DHT22;1062;52.538;13.400;2023-02-08T16:26:43;0.60;99.90
2112;DHT22;1062;52.538;13.400;2023-02-08T16:29:22;0.60;99.90
2112;DHT22;1062;52.538;13.400;2023-02-08T16:32:18;0.50;99.90
2112;DHT22;1062;52.538;13.400;2023-02-08T16:34:46;0.50;99.90
2112;DHT22;1062;52.538;13.400;2023-02-08T16:37:31;0.50;99.90
2112;DHT22;1062;52.538;13.400;2023-02-08T16:39:58;0.50;99.90
2112;DHT22;1062;52.538;13.400;2023-02-08T16:42:37;0.40;99.90
2112;DHT22;1062;52.538;13.400;2023-02-08T16:45:18;0.40;99.90
2112;DHT22;1062;52.538;13.400;2023-02-08T16:50:19;0.40;99.90
2112;DHT22;1062;52.538;13.400;2023-02-08T16:52:55;0.30;99.90
2112;DHT22;1062;52.538;13.400;2023-02-08T16:55:25;0.30;99.90
2112;DHT22;1062;52.538;13.400;2023-02-08T16:57:53;0.20;99.90
2112;DHT22;1062;52.538;13.400;2023-02-08T17:00:25;0.30;99.90
2112;DHT22;1062;52.538;13.400;2023-02-08T17:02:52;0.20;99.90
2112;DHT22;1062;52.538;13.400;2023-02-08T17:05:20;0.20;99.90
2112;DHT22;1062;52.538;13.400;2023-02-08T17:07:47;0.20;99.90
2112;DHT22;1062;52.538;13.400;2023-02-08T17:10:27;0.10;99.90
2112;DHT22;1062;52.538;13.400;2023-02-08T17:12:53;0.10;99.90
2112;DHT22;1062;52.538;13.400;2023-02-08T17:15:19;0.10;99.90
2112;DHT22;1062;52.538;13.400;2023-02-08T17:17:46;0.10;99.90
2112;DHT22;1062;52.538;13.400;2023-02-08T17:22:43;0.10;99.90
2112;DHT22;1062;52.538;13.400;2023-02-08T17:25:09;0.10;99.90
2112;DHT22;1062;52.538;13.400;2023-02-08T17:27:35;0.10;99.90
2112;DHT22;1062;52.538;13.400;2023-02-08T17:30:01;0.00;99.90
2112;DHT22;1062;52.538;13.400;2023-02-08T17:32:26;0.00;99.90
2112;DHT22;1062;52.538;13.400;2023-02-08T17:34:52;0.00;99.90
2112;DHT22;1062;52.538;13.400;2023-02-08T17:37:17;-0.10;99.90
2112;DHT22;1062;52.538;13.400;2023-02-08T17:39:43;-0.10;99.90
2112;DHT22;1062;52.538;13.400;2023-02-08T17:42:09;-0.10;99.90
2112;DHT22;1062;52.538;13.400;2023-02-08T17:44:36;-0.10;99.90
2112;DHT22;1062;52.538;13.400;2023-02-08T17:47:02;-0.10;99.90
2112;DHT22;1062;52.538;13.400;2023-02-08T17:49:29;-0.10;99.90
2112;DHT22;1062;52.538;13.400;2023-02-08T17:51:56;-0.10;99.90
2112;DHT22;1062;52.538;13.400;2023-02-08T17:54:22;-0.10;99.90
2112;DHT22;1062;52.538;13.400;2023-02-08T17:56:47;-0.20;99.90
2112;DHT22;1062;52.538;13.400;2023-02-08T17:59:15;-0.20;99.90
2112;DHT22;1062;52.538;13.400;2023-02-08T18:01:40;-0.20;99.90
2112;DHT22;1062;52.538;13.400;2023-02-08T18:04:08;-0.20;99.90
2112;DHT22;1062;52.538;13.400;2023-02-08T18:06:35;-0.30;99.90
2112;DHT22;1062;52.538;13.400;2023-02-08T18:09:01;-0.30;99.90
2112;DHT22;1062;52.538;13.400;2023-02-08T18:11:27;-0.30;99.90
2112;DHT22;1062;52.538;13.400;2023-02-08T18:13:53;-0.40;99.90
2112;DHT22;1062;52.538;13.400;2023-02-08T18:16:21;-0.40;99.90
2112;DHT22;1062;52.538;13.400;2023-02-08T18:18:47;-0.40;99.90
2112;DHT22;1062;52.538;13.400;2023-02-08T18:21:16;-0.40;99.90
2112;DHT22;1062;52.538;13.400;2023-02-08T18:23:42;-0.40;99.90
2112;DHT22;1062;52.538;13.400;2023-02-08T18:26:11;-0.40;99.90